createdAt,value
2022-08-17T00:01:18.454Z,62479.72
2022-08-17T00:03:49.265Z,62512.88
2022-08-17T00:06:25.999Z,62477.66
2022-08-17T00:08:53.564Z,62436.19
2022-08-17T00:11:22.054Z,62479.72
2022-08-17T00:13:49.820Z,62456.91
2022-08-17T00:16:18.559Z,62434.13
2022-08-17T00:19:06.311Z,62400.97
2022-08-17T00:21:56.417Z,62367.81
2022-08-17T00:24:19.208Z,62386.47
2022-08-17T00:26:45.753Z,62359.53
2022-08-17T00:29:19.385Z,62320.16
2022-08-17T00:31:46.505Z,62376.09
2022-08-17T00:34:12.872Z,62309.81
2022-08-17T00:36:39.222Z,62326.38
2022-08-17T00:39:05.584Z,62309.81
2022-08-17T00:41:31.921Z,62293.22
2022-08-17T00:44:00.448Z,62226.94
2022-08-17T00:46:28.619Z,62189.63
2022-08-17T00:48:55.176Z,62162.69
2022-08-17T00:51:34.226Z,62175.13
2022-08-17T00:54:11.838Z,62193.78
2022-08-17T00:56:40.490Z,62152.34
2022-08-17T00:59:06.847Z,62123.31
2022-08-17T01:01:33.372Z,62069.47
2022-08-17T01:04:00.271Z,62048.75
2022-08-17T01:06:27.064Z,62092.25
2022-08-17T01:08:57.639Z,62048.75
2022-08-17T01:11:24.422Z,62052.88
2022-08-17T01:13:50.723Z,61992.78
2022-08-17T01:16:19.463Z,61932.72
2022-08-17T01:18:47.208Z,61982.44
2022-08-17T01:21:22.728Z,61920.28
2022-08-17T01:23:49.166Z,61953.44
2022-08-17T01:26:15.505Z,61926.50
2022-08-17T01:28:54.560Z,61922.34
2022-08-17T01:31:21.965Z,61885.06
2022-08-17T01:33:48.300Z,61907.84
2022-08-17T01:36:14.628Z,61945.16
2022-08-17T01:38:40.969Z,61951.34
2022-08-17T01:41:10.539Z,61912.00
2022-08-17T01:43:43.118Z,61887.13
2022-08-17T01:46:12.746Z,61851.91
2022-08-17T01:48:39.177Z,61816.69
2022-08-17T01:51:05.901Z,61779.41
2022-08-17T01:53:34.137Z,61742.09
2022-08-17T01:56:03.043Z,61750.41
2022-08-17T01:58:29.441Z,61690.31
2022-08-17T02:00:59.893Z,61619.88
2022-08-17T02:03:28.193Z,61727.59
2022-08-17T02:05:54.630Z,61653.03
2022-08-17T02:08:21.266Z,61642.66
2022-08-17T02:11:11.254Z,61650.94
2022-08-17T02:13:38.256Z,61611.59
2022-08-17T02:16:04.605Z,61667.53
2022-08-17T02:18:30.962Z,61605.38
2022-08-17T02:20:57.372Z,61630.22
2022-08-17T02:23:24.199Z,61611.59
2022-08-17T02:25:50.606Z,61644.75
2022-08-17T02:28:17.417Z,61588.81
2022-08-17T02:31:02.690Z,61617.81
2022-08-17T02:33:43.162Z,61505.94
2022-08-17T02:36:11.217Z,61421.00
2022-08-17T02:38:37.939Z,61464.50
2022-08-17T02:41:04.536Z,61470.72
2022-08-17T02:43:31.179Z,61516.28
2022-08-17T02:45:57.608Z,61561.88
2022-08-17T02:48:30.884Z,61653.03
2022-08-17T02:50:58.163Z,61727.59
2022-08-17T02:53:24.503Z,61721.38
2022-08-17T02:55:52.425Z,61771.13
2022-08-17T02:58:29.567Z,61735.91
2022-08-17T03:01:03.171Z,61675.81
2022-08-17T03:03:29.537Z,61754.53
2022-08-17T03:05:55.879Z,61744.19
2022-08-17T03:08:23.202Z,61721.38
2022-08-17T03:10:50.558Z,61696.53
2022-08-17T03:13:17.257Z,61650.94
2022-08-17T03:15:47.137Z,61702.75
2022-08-17T03:18:21.934Z,61700.69
2022-08-17T03:20:52.943Z,61713.09
2022-08-17T03:23:24.143Z,61679.97
2022-08-17T03:25:53.408Z,61688.25
2022-08-17T03:28:20.095Z,61708.97
2022-08-17T03:30:46.470Z,61667.53
2022-08-17T03:33:12.784Z,61626.09
2022-08-17T03:35:40.300Z,61545.28
2022-08-17T03:38:07.384Z,61595.00
2022-08-17T03:40:55.482Z,61597.09
2022-08-17T03:43:20.867Z,61646.81
2022-08-17T03:46:28.837Z,61624.03
2022-08-17T03:49:19.980Z,61539.09
2022-08-17T03:52:05.084Z,61406.50
2022-08-17T03:54:50.169Z,61566.00
2022-08-17T03:57:16.613Z,61638.53
2022-08-17T03:59:43.024Z,61694.47
2022-08-17T04:02:12.437Z,61711.03
2022-08-17T04:04:38.994Z,61692.38
2022-08-17T04:07:05.462Z,61648.88
2022-08-17T04:09:31.798Z,61696.53
2022-08-17T04:12:02.443Z,61711.03
2022-08-17T04:14:36.147Z,61727.59
2022-08-17T04:17:19.491Z,61692.38
2022-08-17T04:19:46.443Z,61673.75
2022-08-17T04:22:30.508Z,61621.94
2022-08-17T04:24:59.312Z,61642.66
2022-08-17T04:27:25.638Z,61592.94
2022-08-17T04:29:54.763Z,61605.38
2022-08-17T04:33:03.925Z,61588.81
2022-08-17T04:35:09.299Z,61595.00
2022-08-17T04:37:35.660Z,61613.66
2022-08-17T04:40:20.727Z,61568.09
2022-08-17T04:43:00.119Z,61638.53
2022-08-17T04:45:27.448Z,61679.97
2022-08-17T04:47:59.006Z,61698.59
2022-08-17T04:50:25.366Z,61766.97
2022-08-17T04:52:51.847Z,61820.84
2022-08-17T04:55:18.343Z,61824.97
2022-08-17T04:57:45.243Z,61880.91
2022-08-17T05:00:11.863Z,61930.63
2022-08-17T05:02:50.126Z,61970.00
2022-08-17T05:05:20.776Z,61992.78
2022-08-17T05:07:47.294Z,62013.50
2022-08-17T05:10:13.735Z,62104.69
2022-08-17T05:12:40.058Z,62181.34
2022-08-17T05:15:10.139Z,62185.47
2022-08-17T05:17:36.527Z,62243.50
2022-08-17T05:20:02.972Z,62278.72
2022-08-17T05:22:29.433Z,62293.22
2022-08-17T05:24:55.812Z,62334.66
2022-08-17T05:27:22.715Z,62394.75
2022-08-17T05:29:49.951Z,62376.09
2022-08-17T05:32:38.770Z,62440.34
2022-08-17T05:35:02.786Z,62525.31
2022-08-17T05:37:29.165Z,62485.94
2022-08-17T05:40:03.120Z,62564.66
2022-08-17T05:42:29.501Z,62660.00
2022-08-17T05:44:57.135Z,62711.81
2022-08-17T05:47:23.453Z,62738.75
2022-08-17T05:49:49.865Z,62761.53
2022-08-17T05:52:25.555Z,62877.59
2022-08-17T05:55:11.300Z,62972.91
2022-08-17T05:57:53.006Z,63035.09
2022-08-17T06:00:30.304Z,62999.84
2022-08-17T06:03:03.482Z,62935.59
2022-08-17T06:05:39.026Z,63070.31
2022-08-17T06:08:14.586Z,63028.88
2022-08-17T06:10:50.452Z,63115.91
2022-08-17T06:13:27.698Z,63250.63
2022-08-17T06:16:33.721Z,63290.00
2022-08-17T06:19:18.583Z,63379.13
2022-08-17T06:21:47.123Z,63449.59
2022-08-17T06:24:19.726Z,63580.16
2022-08-17T06:26:46.061Z,63723.19
2022-08-17T06:29:19.472Z,63702.44
2022-08-17T06:31:45.934Z,63824.75
2022-08-17T06:34:12.298Z,63870.34
2022-08-17T06:36:43.016Z,64094.22
2022-08-17T06:39:09.329Z,63725.25
2022-08-17T06:41:54.563Z,63911.81
2022-08-17T06:44:43.573Z,64264.22
2022-08-17T06:47:13.546Z,64193.72
2022-08-17T06:49:42.523Z,64334.69
2022-08-17T06:52:45.932Z,64195.81
2022-08-17T06:55:05.145Z,64282.88
2022-08-17T06:57:32.661Z,64299.44
2022-08-17T07:00:07.920Z,64345.06
2022-08-17T07:02:52.756Z,64428.00
2022-08-17T07:05:21.039Z,64537.88
2022-08-17T07:08:02.655Z,64606.28
2022-08-17T07:10:30.695Z,64639.44
2022-08-17T07:12:58.509Z,64685.06
2022-08-17T07:15:34.010Z,64695.44
2022-08-17T07:18:00.688Z,64685.06
2022-08-17T07:20:27.124Z,64699.56
2022-08-17T07:22:59.734Z,64506.75
2022-08-17T07:25:27.437Z,64691.28
2022-08-17T07:27:54.750Z,64792.88
2022-08-17T07:30:21.103Z,64855.06
2022-08-17T07:32:50.806Z,64944.22
2022-08-17T07:35:37.783Z,64826.03
2022-08-17T07:38:07.716Z,64720.31
2022-08-17T07:41:02.314Z,64969.09
2022-08-17T07:43:41.178Z,64900.69
2022-08-17T07:46:35.421Z,65016.81
2022-08-17T07:49:07.357Z,65054.13
2022-08-17T07:51:33.809Z,65193.03
2022-08-17T07:54:14.085Z,65091.44
2022-08-17T07:56:41.107Z,65176.47
2022-08-17T07:59:07.601Z,65352.72
2022-08-17T08:01:39.673Z,65373.44
2022-08-17T08:04:49.697Z,65560.06
2022-08-17T08:07:14.119Z,65317.47
2022-08-17T08:09:44.787Z,65446.03
2022-08-17T08:12:33.467Z,65638.88
2022-08-17T08:15:03.782Z,65587.03
2022-08-17T08:17:36.402Z,65804.78
2022-08-17T08:20:37.782Z,65954.09
2022-08-17T08:23:18.533Z,66460.19
2022-08-17T08:25:53.618Z,66331.56
2022-08-17T08:28:28.977Z,66273.50
2022-08-17T08:30:58.592Z,66427.00
2022-08-17T08:33:39.319Z,66091.00
2022-08-17T08:36:58.145Z,66103.44
2022-08-17T08:39:41.239Z,65821.38
2022-08-17T08:42:15.711Z,65910.56
2022-08-17T08:45:00.471Z,66115.88
2022-08-17T08:47:51.863Z,66074.41
2022-08-17T08:50:37.852Z,66144.91
2022-08-17T08:53:14.257Z,66248.63
2022-08-17T08:55:59.188Z,66489.22
2022-08-17T08:58:31.617Z,66887.47
2022-08-17T09:01:17.103Z,66667.59
2022-08-17T09:03:53.221Z,66835.63
2022-08-17T09:06:38.883Z,67211.09
2022-08-17T09:09:06.389Z,66945.56
2022-08-17T09:11:35.697Z,66945.56
2022-08-17T09:14:28.260Z,66926.91
2022-08-17T09:16:55.265Z,66742.28
2022-08-17T09:19:23.224Z,66447.72
2022-08-17T09:21:52.523Z,65879.44
2022-08-17T09:24:20.694Z,65779.91
2022-08-17T09:26:59.376Z,65717.69
2022-08-17T09:29:26.948Z,65825.53
2022-08-17T09:31:55.159Z,65761.22
2022-08-17T09:34:40.062Z,65833.81
2022-08-17T09:37:19.200Z,65842.13
2022-08-17T09:39:48.507Z,65796.50
2022-08-17T09:42:18.827Z,65790.28
2022-08-17T09:45:20.037Z,65879.44
2022-08-17T09:47:48.364Z,65912.63
2022-08-17T09:51:04.959Z,65721.84
2022-08-17T09:53:07.758Z,65862.84
2022-08-17T09:55:46.311Z,65742.56
2022-08-17T09:58:12.629Z,65877.38
2022-08-17T10:00:40.197Z,65993.50
2022-08-17T10:03:08.337Z,66142.84
2022-08-17T10:05:40.589Z,66113.81
2022-08-17T10:08:15.030Z,66275.56
2022-08-17T10:10:52.458Z,65891.88
2022-08-17T10:13:53.725Z,65786.13
2022-08-17T10:16:26.070Z,65800.63
2022-08-17T10:19:22.052Z,65858.72
2022-08-17T10:22:14.962Z,65584.97
2022-08-17T10:25:22.501Z,65535.19
2022-08-17T10:28:19.678Z,65781.97
2022-08-17T10:30:48.296Z,65877.38
2022-08-17T10:33:15.751Z,65603.63
2022-08-17T10:35:42.045Z,65385.88
2022-08-17T10:38:21.550Z,65452.25
2022-08-17T10:41:03.293Z,65387.97
2022-08-17T10:43:29.797Z,65423.22
2022-08-17T10:46:31.198Z,65408.69
2022-08-17T10:49:13.388Z,65404.56
2022-08-17T10:51:40.550Z,65325.75
2022-08-17T10:54:07.455Z,65504.09
2022-08-17T10:56:41.901Z,65365.16
2022-08-17T10:59:08.334Z,65197.19
2022-08-17T11:01:43.790Z,64892.41
2022-08-17T11:04:36.395Z,64759.69
2022-08-17T11:07:03.034Z,64506.75
2022-08-17T11:09:47.904Z,64394.81
2022-08-17T11:12:17.216Z,64423.84
2022-08-17T11:15:02.808Z,64490.19
2022-08-17T11:17:42.290Z,64372.00
2022-08-17T11:20:08.654Z,64396.88
2022-08-17T11:22:35.078Z,64249.69
2022-08-17T11:25:13.869Z,64160.56
2022-08-17T11:27:40.331Z,64050.69
2022-08-17T11:30:14.829Z,64090.06
2022-08-17T11:32:54.460Z,64015.44
2022-08-17T11:35:21.391Z,63984.34
2022-08-17T11:37:47.715Z,63882.78
2022-08-17T11:40:14.146Z,63974.00
2022-08-17T11:42:43.416Z,64021.66
2022-08-17T11:45:19.543Z,63953.25
2022-08-17T11:48:28.411Z,63996.78
2022-08-17T11:51:17.463Z,64195.81
2022-08-17T11:53:43.850Z,64224.81
2022-08-17T11:56:11.520Z,64150.19
2022-08-17T11:58:37.856Z,64260.06
2022-08-17T12:01:13.437Z,64220.69
2022-08-17T12:03:42.359Z,64345.06
2022-08-17T12:06:30.206Z,64318.13
2022-08-17T12:09:14.515Z,64510.91
2022-08-17T12:11:55.623Z,64664.34
2022-08-17T12:14:51.702Z,64991.91
2022-08-17T12:17:39.147Z,64879.94
2022-08-17T12:20:13.425Z,64635.31
2022-08-17T12:23:04.014Z,64855.06
2022-08-17T12:25:42.602Z,65052.06
2022-08-17T12:28:21.503Z,64921.41
2022-08-17T12:30:49.097Z,65116.31
2022-08-17T12:33:25.437Z,65018.88
2022-08-17T12:36:05.657Z,65062.41
2022-08-17T12:38:36.462Z,65064.50
2022-08-17T12:41:23.845Z,65315.38
2022-08-17T12:44:03.214Z,66134.53
2022-08-17T12:46:33.333Z,66505.81
2022-08-17T12:49:16.159Z,65974.84
2022-08-17T12:51:43.798Z,66132.47
2022-08-17T12:54:16.233Z,66238.25
2022-08-17T12:56:44.985Z,65840.03
2022-08-17T12:59:14.137Z,66294.25
2022-08-17T13:01:55.198Z,66601.22
2022-08-17T13:04:24.075Z,67086.63
2022-08-17T13:06:58.168Z,66899.94
2022-08-17T13:09:35.431Z,66804.50
2022-08-17T13:12:06.819Z,66383.44
2022-08-17T13:14:34.069Z,65927.16
2022-08-17T13:17:15.287Z,65846.25
2022-08-17T13:19:47.971Z,65941.66
2022-08-17T13:22:14.290Z,66047.44
2022-08-17T13:24:40.695Z,65947.88
2022-08-17T13:27:08.784Z,65898.09
2022-08-17T13:29:44.375Z,65750.88
2022-08-17T13:32:13.401Z,65862.84
2022-08-17T13:35:11.823Z,65670.00
2022-08-17T13:37:35.158Z,65748.78
2022-08-17T13:40:10.586Z,65531.03
2022-08-17T13:42:50.570Z,65609.84
2022-08-17T13:45:34.884Z,65854.56
2022-08-17T13:48:06.277Z,66140.75
2022-08-17T13:50:32.734Z,65898.09
2022-08-17T13:52:59.054Z,66406.25
2022-08-17T13:55:25.513Z,66628.19
2022-08-17T13:58:03.904Z,67026.47
2022-08-17T14:00:35.310Z,66505.81
2022-08-17T14:03:27.865Z,65825.53
2022-08-17T14:05:54.241Z,66032.91
2022-08-17T14:08:22.176Z,66435.28
2022-08-17T14:10:58.216Z,66414.53
2022-08-17T14:13:24.584Z,66603.31
2022-08-17T14:15:54.583Z,66831.47
2022-08-17T14:18:42.042Z,66267.28
2022-08-17T14:21:09.268Z,65954.09
2022-08-17T14:23:35.842Z,65721.84
2022-08-17T14:26:02.155Z,66057.81
2022-08-17T14:28:28.566Z,66516.19
2022-08-17T14:30:55.453Z,67588.69
2022-08-17T14:33:22.645Z,67372.94
2022-08-17T14:35:53.401Z,67034.78
2022-08-17T14:38:20.067Z,66588.78
2022-08-17T14:40:46.859Z,66445.66
2022-08-17T14:43:13.218Z,66300.47
2022-08-17T14:45:39.585Z,66947.63
2022-08-17T14:48:07.687Z,66804.50
2022-08-17T14:50:35.407Z,66503.72
2022-08-17T14:53:03.745Z,66265.22
2022-08-17T14:55:31.065Z,66733.97
2022-08-17T14:57:57.493Z,66580.47
2022-08-17T15:00:23.919Z,66713.25
2022-08-17T15:02:54.190Z,66798.28
2022-08-17T15:05:22.036Z,66866.75
2022-08-17T15:07:48.452Z,66958.00
2022-08-17T15:10:15.000Z,67256.75
2022-08-17T15:12:44.482Z,67904.06
2022-08-17T15:15:12.866Z,68458.13
2022-08-17T15:17:54.960Z,67733.94
2022-08-17T15:20:27.651Z,66680.03
2022-08-17T15:22:55.457Z,66665.53
2022-08-17T15:25:22.327Z,67115.69
2022-08-17T15:27:48.743Z,67281.66
2022-08-17T15:30:15.455Z,67509.84
2022-08-17T15:32:50.938Z,67294.09
2022-08-17T15:35:22.084Z,67094.94
2022-08-17T15:37:53.993Z,66704.94
2022-08-17T15:40:20.352Z,66391.72
2022-08-17T15:42:46.720Z,66061.94
2022-08-17T15:45:13.577Z,65806.84
2022-08-17T15:47:40.058Z,65653.41
2022-08-17T15:50:07.054Z,66088.91
2022-08-17T15:52:37.907Z,66080.63
2022-08-17T15:55:04.935Z,66621.97
2022-08-17T15:57:31.315Z,66526.56
2022-08-17T15:59:58.988Z,66427.00
2022-08-17T16:03:44.960Z,66812.81
2022-08-17T16:05:24.823Z,66468.47
2022-08-17T16:07:52.085Z,65958.25
2022-08-17T16:10:19.418Z,66379.28
2022-08-17T16:12:46.486Z,66893.72
2022-08-17T16:15:13.665Z,66534.84
2022-08-17T16:17:41.443Z,66414.53
2022-08-17T16:20:08.952Z,66464.31
2022-08-17T16:22:36.352Z,66449.81
2022-08-17T16:25:05.359Z,66339.88
2022-08-17T16:27:31.687Z,65829.66
2022-08-17T16:29:58.158Z,65734.28
2022-08-17T16:32:31.909Z,65748.78
2022-08-17T16:35:03.735Z,65796.50
2022-08-17T16:37:30.834Z,65661.69
2022-08-17T16:40:00.625Z,65417.00
2022-08-17T16:42:28.870Z,65215.84
2022-08-17T16:44:56.851Z,64948.38
2022-08-17T16:47:23.279Z,64763.84
2022-08-17T16:49:50.077Z,64718.22
2022-08-17T16:52:32.433Z,64635.31
2022-08-17T16:55:00.204Z,64548.22
2022-08-17T16:57:26.624Z,64506.75
2022-08-17T16:59:53.442Z,64573.09
2022-08-17T17:02:31.211Z,64548.22
2022-08-17T17:05:03.679Z,64384.44
2022-08-17T17:07:37.858Z,64353.34
2022-08-17T17:10:14.989Z,64287.00
2022-08-17T17:13:01.147Z,64146.06
2022-08-17T17:15:28.866Z,64112.88
2022-08-17T17:18:07.148Z,64019.59
2022-08-17T17:20:45.815Z,63984.34
2022-08-17T17:23:26.271Z,63942.91
2022-08-17T17:25:55.959Z,64112.88
2022-08-17T17:28:43.226Z,64096.28
2022-08-17T17:31:17.412Z,64075.56
2022-08-17T17:33:48.196Z,63930.47
2022-08-17T17:36:34.775Z,64029.97
2022-08-17T17:39:05.677Z,63994.72
2022-08-17T17:41:49.455Z,63994.72
2022-08-17T17:44:18.018Z,63994.72
2022-08-17T17:46:51.227Z,63951.19
2022-08-17T17:49:18.221Z,63895.22
2022-08-17T17:52:06.505Z,63893.16
2022-08-17T17:54:56.276Z,63826.81
2022-08-17T17:57:24.526Z,63870.34
2022-08-17T18:00:09.765Z,63830.97
2022-08-17T18:02:52.124Z,63847.56
2022-08-17T18:05:22.228Z,63847.56
2022-08-17T18:07:52.406Z,63779.16
2022-08-17T18:10:50.610Z,63727.31
2022-08-17T18:13:26.671Z,63623.69
2022-08-17T18:15:54.393Z,63656.84
2022-08-17T18:18:40.156Z,63650.63
2022-08-17T18:21:16.842Z,63584.31
2022-08-17T18:23:59.704Z,63517.97
2022-08-17T18:26:36.451Z,63449.59
2022-08-17T18:29:21.074Z,63424.72
2022-08-17T18:31:47.822Z,63333.53
2022-08-17T18:34:43.734Z,63383.25
2022-08-17T18:37:07.890Z,63292.06
2022-08-17T18:39:35.263Z,63238.19
2022-08-17T18:42:03.717Z,63132.47
2022-08-17T18:44:32.771Z,63111.75
2022-08-17T18:47:26.633Z,62999.84
2022-08-17T18:49:57.385Z,62898.31
2022-08-17T18:52:28.253Z,62763.59
2022-08-17T18:55:13.797Z,62705.59
2022-08-17T18:57:40.128Z,62595.75
2022-08-17T19:00:26.743Z,62519.09
2022-08-17T19:02:55.097Z,62463.13
2022-08-17T19:05:31.134Z,62432.06
2022-08-17T19:08:14.084Z,62400.97
2022-08-17T19:10:47.002Z,62336.75
2022-08-17T19:13:24.345Z,62326.38
2022-08-17T19:16:11.727Z,62289.09
2022-08-17T19:18:52.490Z,62235.22
2022-08-17T19:21:23.404Z,62195.84
2022-08-17T19:23:55.447Z,62125.41
2022-08-17T19:26:51.359Z,62102.59
2022-08-17T19:29:22.214Z,62098.47
2022-08-17T19:31:49.210Z,62098.47
2022-08-17T19:34:33.543Z,62094.31
2022-08-17T19:37:12.787Z,62115.03
2022-08-17T19:39:50.984Z,62164.75
2022-08-17T19:42:37.130Z,62079.81
2022-08-17T19:45:15.746Z,62098.47
2022-08-17T19:48:03.325Z,62069.47
2022-08-17T19:50:49.521Z,62023.88
2022-08-17T19:53:18.643Z,61951.34
2022-08-17T19:56:04.885Z,61928.56
2022-08-17T19:58:48.185Z,61872.63
2022-08-17T20:01:17.879Z,61849.84
2022-08-17T20:03:48.606Z,61808.41
2022-08-17T20:06:15.216Z,61754.53
2022-08-17T20:08:55.891Z,61769.03
2022-08-17T20:11:24.900Z,61694.47
2022-08-17T20:14:06.774Z,61702.75
2022-08-17T20:16:36.314Z,61673.75
2022-08-17T20:19:05.420Z,61650.94
2022-08-17T20:21:53.966Z,61613.66
2022-08-17T20:24:21.277Z,61592.94
2022-08-17T20:26:58.349Z,61613.66
2022-08-17T20:29:40.286Z,61553.59
2022-08-17T20:32:15.085Z,61568.09
2022-08-17T20:34:55.505Z,61553.59
2022-08-17T20:37:21.850Z,61547.38
2022-08-17T20:39:52.777Z,61580.50
2022-08-17T20:42:22.237Z,61578.44
2022-08-17T20:44:49.687Z,61578.44
2022-08-17T20:47:23.796Z,61609.53
2022-08-17T20:49:53.532Z,61661.31
2022-08-17T20:52:38.862Z,61646.81
2022-08-17T20:55:09.492Z,61682.03
2022-08-17T20:57:35.891Z,61561.88
2022-08-17T21:00:20.997Z,61650.94
2022-08-17T21:02:55.690Z,61626.09
2022-08-17T21:05:30.053Z,61563.94
2022-08-17T21:07:58.103Z,61547.38
2022-08-17T21:10:24.858Z,61522.50
2022-08-17T21:12:51.426Z,61582.59
2022-08-17T21:15:38.165Z,61584.66
2022-08-17T21:18:23.547Z,61570.16
2022-08-17T21:21:02.462Z,61590.88
2022-08-17T21:23:28.819Z,61648.88
2022-08-17T21:26:04.317Z,61597.09
2022-08-17T21:28:34.581Z,61667.53
2022-08-17T21:31:08.391Z,61640.59
2022-08-17T21:33:39.495Z,61650.94
2022-08-17T21:36:11.918Z,61617.81
2022-08-17T21:45:27.359Z,61584.66
2022-08-17T21:48:25.745Z,61588.81
2022-08-17T21:51:12.789Z,61508.00
2022-08-17T21:53:41.707Z,61551.50
2022-08-17T21:56:08.456Z,61532.88
2022-08-17T21:58:36.457Z,61532.88
2022-08-17T22:01:13.240Z,61485.22
2022-08-17T22:03:39.929Z,61543.22
2022-08-17T22:06:19.143Z,61532.88
2022-08-17T22:08:56.967Z,61514.22
2022-08-17T22:11:23.333Z,61505.94
2022-08-17T22:14:02.272Z,61505.94
2022-08-17T22:16:32.048Z,61481.06
2022-08-17T22:18:58.532Z,61421.00
2022-08-17T22:21:25.392Z,61445.84
2022-08-17T22:24:05.123Z,61400.28
2022-08-17T22:26:50.327Z,61392.00
2022-08-17T22:29:35.457Z,61315.34
2022-08-17T22:32:01.873Z,61232.50
2022-08-17T22:34:28.234Z,61280.13
2022-08-17T22:37:13.575Z,61224.22
2022-08-17T22:39:40.374Z,61321.56
2022-08-17T22:42:08.347Z,61321.56
2022-08-17T22:44:44.286Z,61329.84
2022-08-17T22:47:13.677Z,61249.06
2022-08-17T22:49:54.242Z,61249.06
2022-08-17T22:52:29.961Z,61209.72
2022-08-17T22:55:20.571Z,61203.50
2022-08-17T22:58:06.163Z,61182.78
2022-08-17T23:00:43.085Z,61201.41
2022-08-17T23:03:09.542Z,61164.13
2022-08-17T23:05:36.610Z,61114.41
2022-08-17T23:08:03.577Z,61124.78
2022-08-17T23:10:31.260Z,61162.06
2022-08-17T23:12:59.677Z,61122.72
2022-08-17T23:15:30.528Z,61046.06
2022-08-17T23:17:56.962Z,61073.00
2022-08-17T23:20:23.463Z,61104.06
2022-08-17T23:22:53.160Z,60981.84
2022-08-17T23:25:28.012Z,60996.34
2022-08-17T23:27:54.988Z,60940.44
2022-08-17T23:30:25.569Z,60928.00
2022-08-17T23:32:53.771Z,60957.00
2022-08-17T23:35:20.329Z,60894.84
2022-08-17T23:38:07.538Z,60901.06
2022-08-17T23:40:33.954Z,60758.16
2022-08-17T23:43:00.332Z,60793.38
2022-08-17T23:45:30.976Z,60801.66
2022-08-17T23:47:57.521Z,60795.44
2022-08-17T23:50:24.914Z,60681.53
2022-08-17T23:52:56.263Z,60737.44
2022-08-17T23:55:25.806Z,60652.53
2022-08-17T23:57:52.326Z,60675.31
